JUNEAU AML AK US NWS current weather conditions

sailwx.info

Wind from 150 at 9 knots gusting 13

Air temperature 11.3° C
Dewpoint 10.6° C

Last reported at 2020-Aug-09 03:02 UTC.
Time now 2020-Aug-09 03:32 UTC

Location: N 58°17' W 134°23'.
View on Google Maps.

See reports from other nearby stations

  
Tides and Currents Weather Stations Pressure Air Temp Water Temp Dewpoint Dewpoint Depression Visibility Wind Speed Wind Dir Waves Ship Positions
date/time (UTC)wind fromknots sea level pressurealtimeterstation pressurevisibilityair tempwater tempwave heightnotes
2020-Aug-09 03:02 150 9 gusting 13 11.3
2020-Aug-09 02:52 140 8 gusting 13 11.5
2020-Aug-09 02:42 140 9 gusting 17 11.8
2020-Aug-09 02:32 120 14 gusting 19 12.1
2020-Aug-09 02:22 120 13 gusting 19 12.1
2020-Aug-09 02:12 120 13 gusting 19 12.1
2020-Aug-09 02:02 120 13 gusting 18 11.8
2020-Aug-09 01:52 150 11 gusting 13 12.0
2020-Aug-09 01:43 120 13 gusting 15 12.2
2020-Aug-09 01:32 120 14 gusting 17 12.3
2020-Aug-09 01:22 120 14 gusting 18 12.4
2020-Aug-09 01:12 120 12 gusting 17 12.4
2020-Aug-09 01:02 110 13 gusting 17 12.2
2020-Aug-09 00:52 120 14 gusting 20 12.2
2020-Aug-09 00:42 110 13 gusting 19 12.2
2020-Aug-09 00:32 120 14 gusting 18 12.0
2020-Aug-09 00:22 110 15 gusting 20 12.1
2020-Aug-09 00:12 110 13 gusting 19 12.1
2020-Aug-08 23:52 120 12 gusting 14 11.5
2020-Aug-08 23:42 120 9 gusting 15 11.4
2020-Aug-08 23:32 120 9 gusting 14 11.3
2020-Aug-08 23:22 120 12 gusting 15 11.3
2020-Aug-08 23:12 130 12 gusting 15 11.3
2020-Aug-08 23:03 120 13 gusting 15 11.4
2020-Aug-08 22:52 110 13 gusting 19 11.4
2020-Aug-08 22:42 120 14 gusting 19 11.2
2020-Aug-08 22:32 120 13 gusting 18 11.0
2020-Aug-08 22:22 120 8 gusting 15 11.2
2020-Aug-08 22:12 110 13 gusting 19 11.5
2020-Aug-08 22:02 110 14 gusting 20 11.2
2020-Aug-08 21:52 110 13 gusting 20 10.9
2020-Aug-08 21:42 120 15 gusting 21 10.9
2020-Aug-08 21:32 120 14 gusting 19 10.8
2020-Aug-08 21:22 110 14 gusting 20 11.1
2020-Aug-08 21:12 110 14 gusting 20 11.1
2020-Aug-08 21:02 120 14 gusting 20 11.2
2020-Aug-08 20:52 110 13 gusting 20 11.1
2020-Aug-08 20:42 110 14 gusting 20 11.0
2020-Aug-08 20:32 110 13 gusting 20 11.0
2020-Aug-08 20:22 110 14 gusting 20 10.9
2020-Aug-08 20:12 110 13 gusting 19 10.9
2020-Aug-08 20:02 110 13 gusting 20 10.9
2020-Aug-08 19:52 110 13 gusting 20 10.9
2020-Aug-08 19:42 110 13 gusting 20 10.9
2020-Aug-08 19:32 110 13 gusting 20 10.9
2020-Aug-08 19:22 110 12 gusting 17 10.9
2020-Aug-08 19:12 110 12 gusting 18 10.9
2020-Aug-08 19:02 110 12 gusting 19 10.9
2020-Aug-08 18:52 110 13 gusting 17 11.1
2020-Aug-08 18:42 110 13 gusting 20 11.0
2020-Aug-08 18:32 110 14 gusting 20 11.2
2020-Aug-08 18:22 110 17 gusting 21 11.3
2020-Aug-08 18:12 120 17 gusting 21 11.1
2020-Aug-08 18:02 110 15 gusting 20 11.2
2020-Aug-08 17:52 110 14 gusting 19 11.0
2020-Aug-08 17:42 120 15 gusting 20 10.8
2020-Aug-08 17:32 120 14 gusting 20 10.7
2020-Aug-08 17:22 120 13 gusting 17 10.6
2020-Aug-08 17:12 120 13 gusting 17 10.8
2020-Aug-08 17:02 110 13 gusting 20 11.2
2020-Aug-08 16:52 110 14 gusting 20 11.4
2020-Aug-08 16:42 110 13 gusting 19 11.4
2020-Aug-08 16:32 110 12 gusting 19 11.4
2020-Aug-08 16:22 110 12 gusting 17 11.3
2020-Aug-08 16:12 110 14 gusting 20 11.1
2020-Aug-08 16:02 120 13 gusting 17 10.9
2020-Aug-08 15:52 140 8 gusting 13 10.7
2020-Aug-08 15:42 140 9 gusting 14 10.8
2020-Aug-08 15:32 130 11 gusting 15 10.8
2020-Aug-08 15:22 120 12 gusting 17 10.8
2020-Aug-08 15:12 120 13 gusting 18 10.6
2020-Aug-08 15:02 110 12 gusting 17 10.7
2020-Aug-08 14:52 120 9 gusting 14 10.7
2020-Aug-08 14:42 120 13 gusting 19 10.6
2020-Aug-08 14:32 110 12 gusting 17 10.5
2020-Aug-08 14:22 110 12 gusting 15 10.6
2020-Aug-08 14:12 110 9 gusting 17 10.5
2020-Aug-08 14:02 110 11 gusting 20 10.5
2020-Aug-08 13:52 110 12 gusting 20 10.3
2020-Aug-08 13:42 110 12 gusting 17 10.3
2020-Aug-08 13:32 110 13 gusting 20 10.3
2020-Aug-08 13:22 110 13 gusting 19 10.2
2020-Aug-08 13:12 110 14 gusting 20 9.9
2020-Aug-08 13:02 110 13 gusting 20 10.3
2020-Aug-08 12:52 110 12 gusting 22 10.4
2020-Aug-08 12:42 110 12 gusting 19 10.4
2020-Aug-08 12:32 110 13 gusting 20 10.5
2020-Aug-08 12:22 110 14 gusting 22 10.4
2020-Aug-08 12:12 110 14 gusting 20 10.5
2020-Aug-08 12:02 120 15 gusting 22 10.7
2020-Aug-08 11:52 120 14 gusting 20 10.4
2020-Aug-08 11:42 130 13 gusting 15 10.4
2020-Aug-08 11:32 140 12 gusting 17 10.3
2020-Aug-08 11:22 150 8 gusting 14 10.2
2020-Aug-08 11:12 150 11 gusting 15 10.2
2020-Aug-08 11:02 150 9 gusting 14 10.1
2020-Aug-08 10:52 150 11 gusting 14 10.1
2020-Aug-08 10:42 150 11 gusting 17 10.1
2020-Aug-08 10:32 150 9 gusting 13 10.3
2020-Aug-08 10:22 150 11 gusting 15 10.3
2020-Aug-08 10:12 150 13 gusting 17 10.3
2020-Aug-08 10:02 160 9 gusting 14 10.4
2020-Aug-08 09:52 150 9 gusting 14 10.4
2020-Aug-08 09:42 150 12 gusting 14 10.5
2020-Aug-08 09:32 150 9 gusting 14 10.7
2020-Aug-08 09:22 130 13 gusting 19 11.0
2020-Aug-08 09:12 130 13 gusting 18 10.8
2020-Aug-08 09:02 150 11 gusting 15 10.8
2020-Aug-08 08:52 150 9 gusting 14 10.7
2020-Aug-08 08:42 120 9 gusting 13 10.8
2020-Aug-08 08:32 140 7 gusting 13 10.7
2020-Aug-08 08:22 120 13 gusting 19 10.7
2020-Aug-08 08:12 140 11 gusting 14 10.8
2020-Aug-08 08:02 120 11 gusting 14 10.8
2020-Aug-08 07:52 130 12 gusting 15 10.7
2020-Aug-08 07:42 120 13 gusting 18 10.6
2020-Aug-08 07:32 120 13 gusting 19 10.5
2020-Aug-08 07:22 110 13 gusting 19 10.7
2020-Aug-08 07:12 120 13 gusting 19 10.8
2020-Aug-08 07:02 120 13 gusting 20 10.8
2020-Aug-08 06:52 110 13 gusting 21 10.7
2020-Aug-08 06:42 110 13 gusting 20 10.7
2020-Aug-08 06:32 120 13 gusting 19 10.5
2020-Aug-08 06:22 150 11 gusting 14 10.6
2020-Aug-08 06:12 120 13 gusting 15 10.9
2020-Aug-08 06:02 120 13 gusting 17 10.8
2020-Aug-08 05:52 110 13 gusting 20 10.9
2020-Aug-08 05:42 110 12 gusting 20 10.8
2020-Aug-08 05:32 110 13 gusting 18 10.7
2020-Aug-08 05:22 110 13 gusting 21 10.7
2020-Aug-08 05:12 110 12 gusting 17 10.5
2020-Aug-08 05:02 110 13 gusting 20 10.6
2020-Aug-08 04:52 110 14 gusting 20 10.6
2020-Aug-08 04:42 120 13 gusting 19 10.4
2020-Aug-08 04:32 120 14 gusting 19 10.4
2020-Aug-08 04:22 120 13 gusting 20 10.5
2020-Aug-08 04:12 110 12 gusting 20 10.3
2020-Aug-08 04:02 110 8 gusting 13 10.4
2020-Aug-08 03:52 100 13 gusting 20 10.8
2020-Aug-08 03:42 110 13 gusting 20 10.9
2020-Aug-08 03:32 110 13 gusting 20 10.9
2020-Aug-08 03:22 110 13 gusting 20 10.8
2020-Aug-08 03:12 110 15 gusting 20 11.2
2020-Aug-08 03:02 110 13 gusting 21 11.6
2020-Aug-08 02:52 110 13 gusting 20 11.6
2020-Aug-08 02:42 110 11 gusting 14 11.5
2020-Aug-08 02:32 120 12 gusting 17 11.4
2020-Aug-08 02:22 120 13 gusting 19 11.7
2020-Aug-08 02:12 110 13 gusting 19 11.6
2020-Aug-08 02:02 110 9 gusting 17 11.6
2020-Aug-08 01:52 110 9 gusting 13 11.6
2020-Aug-08 01:42 110 11 gusting 15 11.7
2020-Aug-08 01:32 110 11 gusting 14 11.6
2020-Aug-08 01:22 120 13 gusting 17 11.5
2020-Aug-08 01:12 140 9 gusting 13 11.5
2020-Aug-08 01:02 150 9 gusting 14 11.7
2020-Aug-08 00:52 150 9 gusting 15 11.8
2020-Aug-08 00:42 150 12 gusting 17 11.7
2020-Aug-08 00:32 150 11 gusting 17 11.8
2020-Aug-08 00:22 120 14 gusting 19 11.9
2020-Aug-08 00:12 110 13 gusting 19 11.7
2020-Aug-07 23:52 150 9 gusting 15 11.1
2020-Aug-07 23:43 130 13 gusting 17 10.9
2020-Aug-07 23:32 150 12 gusting 15 10.9
2020-Aug-07 23:22 150 9 gusting 13 11.4
2020-Aug-07 23:12 150 8 gusting 13 11.5
2020-Aug-07 23:02 150 9 gusting 13 11.4
2020-Aug-07 22:52 150 8 gusting 14 11.4
2020-Aug-07 22:42 140 11 gusting 15 11.2
2020-Aug-07 22:32 150 9 gusting 14 11.0
2020-Aug-07 22:22 150 8 gusting 13 11.2
2020-Aug-07 22:12 130 13 gusting 17 11.2
2020-Aug-07 22:02 140 12 gusting 17 11.0
2020-Aug-07 21:52 150 11 gusting 17 11.1
2020-Aug-07 21:42 140 12 gusting 15 11.1
2020-Aug-07 21:32 130 13 gusting 18 11.1
2020-Aug-07 21:22 130 14 gusting 20 11.1
2020-Aug-07 21:12 150 11 gusting 15 10.8
2020-Aug-07 21:02 130 12 gusting 17 11.0
2020-Aug-07 20:52 110 9 gusting 14 10.6
2020-Aug-07 20:42 130 11 gusting 14 10.5
2020-Aug-07 20:32 130 13 gusting 18 10.8
2020-Aug-07 20:22 130 9 gusting 14 10.4
2020-Aug-07 20:12 150 9 gusting 13 10.2
2020-Aug-07 20:02 150 9 gusting 12 10.1
2020-Aug-07 19:52 150 8 gusting 13 10.2
2020-Aug-07 19:42 150 8 gusting 13 10.1
2020-Aug-07 19:32 150 9 gusting 13 10.0
2020-Aug-07 19:22 150 9 gusting 13 10.0
2020-Aug-07 19:12 150 11 gusting 14 10.0
2020-Aug-07 19:02 150 12 gusting 14 10.0
2020-Aug-07 18:52 140 12 gusting 15 10.2
2020-Aug-07 18:42 130 13 gusting 15 10.3
2020-Aug-07 18:32 140 11 gusting 13 10.3
2020-Aug-07 18:22 150 9 gusting 13 10.4
2020-Aug-07 18:12 150 9 gusting 14 10.4
2020-Aug-07 18:02 150 8 gusting 13 10.5
2020-Aug-07 17:52 150 11 gusting 13 10.3
2020-Aug-07 17:42 150 7 gusting 13 10.2
2020-Aug-07 17:32 140 7 gusting 13 10.3
2020-Aug-07 17:22 150 11 gusting 14 10.3
2020-Aug-07 17:12 150 11 gusting 14 10.2
2020-Aug-07 17:02 150 13 gusting 15 10.2
2020-Aug-07 16:52 150 13 gusting 17 10.1
2020-Aug-07 16:42 150 13 gusting 14 10.1
2020-Aug-07 16:32 150 12 gusting 14 10.2
2020-Aug-07 16:22 150 11 gusting 13 10.1
2020-Aug-07 16:12 160 12 gusting 14 10.0
2020-Aug-07 16:02 150 13 gusting 18 10.0
2020-Aug-07 15:52 140 13 gusting 18 10.0
2020-Aug-07 15:42 150 13 gusting 17 10.1
2020-Aug-07 15:32 150 12 gusting 13 10.1
2020-Aug-07 15:22 140 6 gusting 12 10.2
2020-Aug-07 15:12 150 7 gusting 12 10.3
2020-Aug-07 15:02 160 9 gusting 13 10.1
2020-Aug-07 14:52 160 11 gusting 13 10.0
2020-Aug-07 14:42 140 13 gusting 17 9.8
2020-Aug-07 14:32 140 13 gusting 17 9.8
2020-Aug-07 14:22 140 11 gusting 17 9.6
2020-Aug-07 14:12 150 11 gusting 13 9.7
2020-Aug-07 14:02 150 11 gusting 13 9.6
2020-Aug-07 13:52 150 11 gusting 13 9.5
2020-Aug-07 13:42 150 13 gusting 14 9.5
2020-Aug-07 13:32 150 13 gusting 14 9.6
2020-Aug-07 13:22 150 12 gusting 15 9.5
2020-Aug-07 13:12 150 12 gusting 14 9.6
2020-Aug-07 13:02 150 13 gusting 13 9.9
2020-Aug-07 12:52 140 12 gusting 14 10.5
2020-Aug-07 12:42 120 12 gusting 15 10.7
2020-Aug-07 12:32 120 13 gusting 18 10.8
2020-Aug-07 12:22 120 12 gusting 17 10.9
2020-Aug-07 12:12 110 14 gusting 22 10.9
2020-Aug-07 12:02 110 17 gusting 25 10.9
2020-Aug-07 11:52 110 15 gusting 22 10.9
2020-Aug-07 11:42 110 14 gusting 24 11.0
2020-Aug-07 11:32 110 13 gusting 20 11.3
2020-Aug-07 11:22 110 11 gusting 17 11.7
2020-Aug-07 11:12 110 13 gusting 20 11.8
2020-Aug-07 11:02 110 13 gusting 19 11.9
2020-Aug-07 10:52 110 13 gusting 20 11.8
2020-Aug-07 10:42 110 11 gusting 15 11.6
2020-Aug-07 10:32 110 13 gusting 20 11.4
2020-Aug-07 10:22 110 11 gusting 17 11.1
2020-Aug-07 10:12 110 11 gusting 17 11.0
2020-Aug-07 10:02 120 9 gusting 18 10.7
2020-Aug-07 09:52 110 11 gusting 17 10.8
2020-Aug-07 09:42 110 12 gusting 18 10.9
2020-Aug-07 09:32 120 12 gusting 18 11.5
2020-Aug-07 09:22 110 14 gusting 24 11.8
2020-Aug-07 09:12 110 17 gusting 27 11.9
2020-Aug-07 09:02 110 18 gusting 27 12.0
2020-Aug-07 08:52 110 18 gusting 28 12.2
2020-Aug-07 08:42 110 15 gusting 25 12.1
2020-Aug-07 08:32 120 15 gusting 27 11.9
2020-Aug-07 08:22 140 12 gusting 15 11.7
2020-Aug-07 08:12 130 13 gusting 20 12.2
2020-Aug-07 08:02 110 14 gusting 20 12.5
2020-Aug-07 07:52 110 14 gusting 20 12.1
2020-Aug-07 07:42 110 17 gusting 22 12.0
2020-Aug-07 07:32 110 14 gusting 25 11.8
2020-Aug-07 07:22 110 13 gusting 21 11.7
2020-Aug-07 07:12 110 13 gusting 21 11.9
2020-Aug-07 07:02 100 13 gusting 21 11.8
2020-Aug-07 06:52 100 15 gusting 22 11.6
2020-Aug-07 06:42 110 15 gusting 22 11.4
2020-Aug-07 06:32 110 14 gusting 22 11.3
2020-Aug-07 06:22 100 14 gusting 20 11.3
2020-Aug-07 06:12 100 14 gusting 21 11.5
2020-Aug-07 06:02 110 12 gusting 20 11.4
2020-Aug-07 05:52 120 13 gusting 18 11.2
2020-Aug-07 05:42 120 15 gusting 19 10.9
2020-Aug-07 05:32 130 13 gusting 17 10.7
2020-Aug-07 05:22 140 12 gusting 15 10.7
2020-Aug-07 05:12 150 12 gusting 14 10.5
2020-Aug-07 05:02 140 13 gusting 14 10.7
2020-Aug-07 04:52 140 13 gusting 18 10.9
2020-Aug-07 04:42 140 13 gusting 15 11.1
2020-Aug-07 04:32 130 13 gusting 19 11.7
2020-Aug-07 04:22 140 8 gusting 13 11.7
2020-Aug-07 04:12 130 5 gusting 8 11.8
2020-Aug-07 04:02 150 5 gusting 6 12.1
2020-Aug-07 03:52 110 2 gusting 6 12.4
2020-Aug-07 03:42 110 1 gusting 4 12.6
2020-Aug-07 03:32 170 6 gusting 9 12.9
2020-Aug-07 03:22 160 9 gusting 12 12.9
2020-Aug-07 03:12 150 9 gusting 13 13.2
2020-Aug-07 03:02 120 9 gusting 13 13.8